Time;durP1;ratioP1;P1;durP2;ratioP2;P2;SDS_P1;SDS_P2;PMS_P1;PMS_P2;Temp;Humidity;BMP_temperature;BMP_pressure;BME280_temperature;BME280_humidity;BME280_pressure;Samples;Min_cycle;Max_cycle;Signal;HPM_P1;HPM_P2
2023/05/26 00:00:10;;;;;;;;;;;;;;;18.40;85.74;99491.16;329433;30;1257;-72
2023/05/26 00:00:21;;;;;;;;;;;;;;;18.40;85.57;99490.31;331680;29;1934;-73
2023/05/26 00:00:32;;;;;;;;;;;;;;;18.39;85.52;99489.47;327739;30;2447;-73
2023/05/26 00:00:43;;;;;;;;;;;;;;;18.39;85.85;99496.56;329459;29;2504;-72
2023/05/26 00:00:53;;;;;;;;;;;;;;;18.39;85.55;99488.63;333844;29;1262;-72
2023/05/26 00:01:03;;;;;;;;;;;;;;;18.38;85.63;99494.88;330984;29;2687;-72
2023/05/26 00:01:16;;;;;;;;;;;;;;;18.38;85.64;99497.53;330688;29;2639;-73
2023/05/26 00:01:28;;;;;;;;;;;;;;;18.37;85.68;99495.84;332972;29;1851;-73
2023/05/26 00:01:38;;;;;;;;;;;;;;;18.36;85.72;99495.00;331484;29;1405;-75
2023/05/26 00:01:48;;;;;;;;;;;;;;;18.37;85.75;99499.34;332337;29;1310;-74
2023/05/26 00:01:58;;;;;;;;;;;;;;;18.37;85.77;99487.88;330230;29;2095;-73
2023/05/26 00:02:10;;;;;;;;;;;;;;;18.37;85.72;99498.50;330832;29;894;-73
2023/05/26 00:02:20;;;;;;;;;;;;;;;18.36;85.78;99492.34;331495;29;2552;-73
2023/05/26 00:02:30;;;;;;;;;;;;;;;18.36;85.63;99494.16;328627;29;3096;-73
2023/05/26 00:02:41;;;;;;;;;;;;;;;18.36;85.87;99488.84;330162;29;3367;-72
2023/05/26 00:02:51;;;;;;;;;;;;;;;18.36;85.78;99491.50;331931;29;1259;-72
2023/05/26 00:03:04;;;;;;;;;;;;;;;18.35;85.75;99495.94;332601;29;3259;-72
2023/05/26 00:03:16;;;;;;;;;;;;;;;18.36;85.80;99491.50;326380;29;3704;-72
2023/05/26 00:03:29;;;;;;;;;;;;;;;18.34;86.00;99490.78;321330;30;4824;-73
2023/05/26 00:03:39;;;;;;;;;;;;;;;18.35;85.75;99495.09;323425;30;1218;-73
2023/05/26 00:03:50;;;;;;;;;;;;;;;18.34;85.68;99490.78;323659;30;3319;-73
2023/05/26 00:04:01;;;;;;;;;;;;;;;18.35;85.86;99495.09;321043;30;2019;-73
2023/05/26 00:04:12;;;;;;;;;;;;;;;18.32;85.71;99496.19;318074;30;2824;-72
2023/05/26 00:04:24;;;;;;;;;;;;;;;18.32;85.84;99490.03;315360;31;771;-72
2023/05/26 00:04:34;;;;;;;;;;;;;;;18.32;86.11;99498.84;313722;31;3778;-73
2023/05/26 00:04:44;;;;;;;;;;;;;;;18.32;85.90;99487.38;311659;31;4541;-73
2023/05/26 00:04:58;;;;;;;;;;;;;;;18.31;86.11;99491.84;312025;31;1747;-73
2023/05/26 00:05:08;;;;;;;;;;;;;;;18.33;85.95;99494.38;310857;31;1273;-73
2023/05/26 00:05:20;;;;;;;;;;;;;;;18.32;86.00;99496.19;309507;31;4399;-73
2023/05/26 00:05:30;;;;;;;;;;;;;;;18.32;85.81;99492.69;308070;31;4738;-73
2023/05/26 00:05:40;;;;;;;;;;;;;;;18.32;86.19;99493.53;306607;32;804;-73
2023/05/26 00:05:50;;;;;;;;;;;;;;;18.32;85.82;99495.34;305481;32;1128;-73
2023/05/26 00:06:01;;;;;;;;;;;;;;;18.32;85.94;99487.38;307385;32;3090;-73
2023/05/26 00:06:11;;;;;;;;;;;;;;;18.32;86.01;99496.19;306830;32;3103;-73
2023/05/26 00:06:22;;;;;;;;;;;;;;;18.31;86.09;99496.28;305413;32;884;-73
2023/05/26 00:06:32;;;;;;;;;;;;;;;18.32;85.90;99495.34;300871;32;3911;-72
2023/05/26 00:06:46;;;;;;;;;;;;;;;18.31;85.84;99493.66;299481;32;4779;-72
2023/05/26 00:06:56;;;;;;;;;;;;;;;18.33;86.24;99494.38;303351;32;5744;-73
2023/05/26 00:07:06;;;;;;;;;;;;;;;18.32;86.01;99492.69;304537;32;840;-72
2023/05/26 00:07:16;;;;;;;;;;;;;;;18.31;86.09;99488.34;299670;32;5952;-73
2023/05/26 00:07:26;;;;;;;;;;;;;;;18.31;86.03;99493.66;298792;32;6178;-73
2023/05/26 00:07:37;;;;;;;;;;;;;;;18.31;85.99;99496.28;299258;33;1231;-73
2023/05/26 00:07:47;;;;;;;;;;;;;;;18.32;86.11;99498.84;295577;33;6522;-73
2023/05/26 00:07:58;;;;;;;;;;;;;;;18.31;86.10;99491.84;291859;33;6099;-73
2023/05/26 00:08:08;;;;;;;;;;;;;;;18.32;86.09;99492.69;294258;33;1329;-73
2023/05/26 00:08:18;;;;;;;;;;;;;;;18.32;86.15;99497.97;291995;33;3959;-73
2023/05/26 00:08:29;;;;;;;;;;;;;;;18.32;86.02;99492.69;293368;33;4823;-73
2023/05/26 00:08:40;;;;;;;;;;;;;;;18.31;86.11;99489.19;295247;33;917;-73
2023/05/26 00:08:50;;;;;;;;;;;;;;;18.31;86.08;99491.00;292076;33;5669;-73
2023/05/26 00:09:01;;;;;;;;;;;;;;;18.31;86.17;99491.00;293456;33;6469;-73
2023/05/26 00:09:11;;;;;;;;;;;;;;;18.31;86.19;99493.66;293946;33;8080;-73
2023/05/26 00:09:21;;;;;;;;;;;;;;;18.31;86.09;99491.00;291276;33;1568;-73
2023/05/26 00:09:32;;;;;;;;;;;;;;;18.31;86.04;99496.28;289561;34;8461;-73
2023/05/26 00:09:42;;;;;;;;;;;;;;;18.30;86.20;99495.44;289363;33;9140;-73
2023/05/26 00:09:52;;;;;;;;;;;;;;;18.30;86.13;99495.44;291244;34;1228;-73
2023/05/26 00:10:03;;;;;;;;;;;;;;;18.30;86.39;99492.81;285822;34;8910;-73
2023/05/26 00:10:13;;;;;;;;;;;;;;;18.30;86.09;99490.16;284086;34;8489;-73
2023/05/26 00:10:24;;;;;;;;;;;;;;;18.28;86.20;99490.25;286790;34;1377;-73
2023/05/26 00:10:34;;;;;;;;;;;;;;;18.29;86.12;99493.75;286875;34;5870;-73
2023/05/26 00:10:44;;;;;;;;;;;;;;;18.29;86.14;99493.75;283603;34;6439;-73
2023/05/26 00:10:55;;;;;;;;;;;;;;;18.28;86.27;99490.25;282967;35;876;-73
2023/05/26 00:12:48;;;;;;;;;;;;;;;18.25;86.49;99492.28;2491201;27;19929;-73
2023/05/26 00:12:59;;;;;;;;;;;;;;;18.25;86.53;99492.28;352596;27;5164;-73
2023/05/26 00:13:09;;;;;;;;;;;;;;;18.24;86.60;99491.44;351869;28;3016;-74
2023/05/26 00:13:19;;;;;;;;;;;;;;;18.24;86.60;99496.75;350565;28;1670;-74
2023/05/26 00:13:29;;;;;;;;;;;;;;;18.24;86.55;99491.44;348931;28;1456;-73
2023/05/26 00:13:40;;;;;;;;;;;;;;;18.24;86.49;99494.09;349051;28;1402;-73
2023/05/26 00:13:50;;;;;;;;;;;;;;;18.24;86.46;99496.75;350300;28;1622;-73
2023/05/26 00:14:00;;;;;;;;;;;;;;;18.24;86.46;99491.44;351801;28;954;-73
2023/05/26 00:14:14;;;;;;;;;;;;;;;18.24;86.47;99491.44;349001;28;1199;-73
2023/05/26 00:14:24;;;;;;;;;;;;;;;18.25;86.31;99492.28;347564;28;1271;-73
2023/05/26 00:14:34;;;;;;;;;;;;;;;18.25;86.84;99493.13;347305;28;1478;-73
2023/05/26 00:14:46;;;;;;;;;;;;;;;18.25;86.44;99487.84;347527;28;1348;-73
2023/05/26 00:14:56;;;;;;;;;;;;;;;18.25;86.30;99492.28;347740;28;832;-73
2023/05/26 00:15:06;;;;;;;;;;;;;;;18.25;86.32;99493.13;347595;28;1531;-73
2023/05/26 00:15:17;;;;;;;;;;;;;;;18.25;86.45;99490.50;346112;28;1357;-73
2023/05/26 00:15:27;;;;;;;;;;;;;;;18.25;86.61;99495.78;346392;28;843;-73
2023/05/26 00:15:37;;;;;;;;;;;;;;;18.25;86.39;99493.13;346542;28;733;-73
2023/05/26 00:15:47;;;;;;;;;;;;;;;18.24;86.56;99491.44;346273;28;1411;-73
2023/05/26 00:15:58;;;;;;;;;;;;;;;18.26;86.67;99493.97;346289;28;1564;-73
2023/05/26 00:16:08;;;;;;;;;;;;;;;18.25;86.55;99493.13;346250;28;919;-73
2023/05/26 00:16:18;;;;;;;;;;;;;;;18.24;86.46;99491.44;345006;28;820;-73
2023/05/26 00:16:29;;;;;;;;;;;;;;;18.25;86.45;99492.28;344834;28;1384;-73
2023/05/26 00:16:39;;;;;;;;;;;;;;;18.24;86.53;99491.44;344737;28;1233;-73
2023/05/26 00:16:49;;;;;;;;;;;;;;;18.25;86.57;99493.13;342313;28;1593;-73
2023/05/26 00:16:59;;;;;;;;;;;;;;;18.24;86.55;99487.94;343037;28;1572;-73
2023/05/26 00:17:11;;;;;;;;;;;;;;;18.23;86.54;99495.06;343557;28;1415;-73
2023/05/26 00:17:21;;;;;;;;;;;;;;;18.24;86.47;99495.91;346261;28;1260;-73
2023/05/26 00:17:31;;;;;;;;;;;;;;;18.23;86.69;99492.41;346123;28;1207;-72
2023/05/26 00:17:42;;;;;;;;;;;;;;;18.22;86.61;99493.38;346262;28;889;-72
2023/05/26 00:17:52;;;;;;;;;;;;;;;18.20;86.70;99495.28;346379;28;827;-72
2023/05/26 00:18:02;;;;;;;;;;;;;;;18.21;86.93;99496.13;346406;28;931;-72
2023/05/26 00:18:12;;;;;;;;;;;;;;;18.19;86.70;99496.28;347098;28;854;-73
2023/05/26 00:18:26;;;;;;;;;;;;;;;18.19;86.95;99488.31;347681;28;1422;-72
2023/05/26 00:18:36;;;;;;;;;;;;;;;18.20;86.90;99489.13;347592;28;1423;-72
2023/05/26 00:18:46;;;;;;;;;;;;;;;18.18;86.97;99486.63;346467;28;1154;-72
2023/05/26 00:18:57;;;;;;;;;;;;;;;18.19;87.06;99493.63;345359;28;1035;-72
2023/05/26 00:19:08;;;;;;;;;;;;;;;18.19;87.01;99493.63;346367;28;1317;-74
2023/05/26 00:19:19;;;;;;;;;;;;;;;18.18;87.08;99497.22;345049;28;848;-73
2023/05/26 00:19:31;;;;;;;;;;;;;;;18.18;87.24;99491.94;338502;28;1609;-73
2023/05/26 00:19:45;;;;;;;;;;;;;;;18.17;87.18;99490.25;342566;28;1470;-73
2023/05/26 00:19:55;;;;;;;;;;;;;;;18.16;87.12;99496.50;343607;28;1321;-73
2023/05/26 00:20:07;;;;;;;;;;;;;;;18.15;87.27;99497.47;343668;28;1376;-73
2023/05/26 00:20:17;;;;;;;;;;;;;;;18.16;87.45;99493.84;347449;28;1514;-74
2023/05/26 00:20:27;;;;;;;;;;;;;;;18.15;87.59;99489.50;344785;28;1211;-73
2023/05/26 00:20:38;;;;;;;;;;;;;;;18.14;87.39;99494.91;344686;28;1347;-73
2023/05/26 00:20:49;;;;;;;;;;;;;;;18.13;87.53;99494.06;343732;28;777;-73
2023/05/26 00:21:00;;;;;;;;;;;;;;;18.13;87.61;99494.06;343013;28;1539;-73
2023/05/26 00:21:10;;;;;;;;;;;;;;;18.13;87.55;99486.13;341712;28;1538;-73
2023/05/26 00:21:21;;;;;;;;;;;;;;;18.13;87.94;99496.72;341325;28;804;-72
2023/05/26 00:21:31;;;;;;;;;;;;;;;18.13;87.65;99491.44;344669;28;1572;-72
2023/05/26 00:21:41;;;;;;;;;;;;;;;18.14;87.75;99485.16;344195;28;1896;-72
2023/05/26 00:21:51;;;;;;;;;;;;;;;18.10;87.76;99483.72;341772;28;4138;-72
2023/05/26 00:22:02;;;;;;;;;;;;;;;18.12;87.90;99486.25;339302;28;5215;-72
2023/05/26 00:22:14;;;;;;;;;;;;;;;18.12;87.81;99491.53;342630;28;3083;-72
2023/05/26 00:22:25;;;;;;;;;;;;;;;18.11;87.78;99490.69;340666;28;3227;-72
2023/05/26 00:22:35;;;;;;;;;;;;;;;18.11;87.96;99489.84;340950;29;1316;-72
2023/05/26 00:22:45;;;;;;;;;;;;;;;18.10;87.91;99494.31;342695;28;1478;-73
2023/05/26 00:22:55;;;;;;;;;;;;;;;18.08;87.98;99493.56;338774;29;2435;-73
2023/05/26 00:23:05;;;;;;;;;;;;;;;18.08;88.19;99490.91;335738;29;1245;-73
2023/05/26 00:23:16;;;;;;;;;;;;;;;18.09;88.15;99487.31;335215;29;1817;-73
2023/05/26 00:23:26;;;;;;;;;;;;;;;18.10;87.99;99489.00;335571;29;2069;-73
2023/05/26 00:23:36;;;;;;;;;;;;;;;18.10;87.83;99491.66;336707;29;1342;-73
2023/05/26 00:23:46;;;;;;;;;;;;;;;18.11;88.00;99496.00;337298;29;2137;-74
2023/05/26 00:23:57;;;;;;;;;;;;;;;18.11;88.03;99495.16;334527;29;1556;-73
2023/05/26 00:24:08;;;;;;;;;;;;;;;18.11;87.69;99496.00;331945;29;1223;-73
2023/05/26 00:24:19;;;;;;;;;;;;;;;18.11;87.65;99490.69;332076;29;953;-73
2023/05/26 00:24:29;;;;;;;;;;;;;;;18.10;87.57;99499.59;333842;29;1536;-73
2023/05/26 00:24:39;;;;;;;;;;;;;;;18.11;87.49;99495.16;332949;29;2279;-73
2023/05/26 00:24:51;;;;;;;;;;;;;;;18.09;87.58;99489.97;331988;29;779;-73
2023/05/26 00:25:03;;;;;;;;;;;;;;;18.09;87.45;99487.31;332495;29;2072;-74
2023/05/26 00:25:13;;;;;;;;;;;;;;;18.10;87.31;99494.31;331011;29;2330;-72
2023/05/26 00:25:23;;;;;;;;;;;;;;;18.08;87.45;99490.91;328055;29;2417;-72
2023/05/26 00:25:34;;;;;;;;;;;;;;;18.11;87.28;99490.69;328260;30;1422;-72
2023/05/26 00:25:44;;;;;;;;;;;;;;;18.11;87.40;99496.00;328623;29;2603;-72
2023/05/26 00:25:54;;;;;;;;;;;;;;;18.12;87.11;99502.97;324725;30;2582;-72
2023/05/26 00:26:04;;;;;;;;;;;;;;;18.12;87.22;99494.19;324662;30;875;-72
2023/05/26 00:26:14;;;;;;;;;;;;;;;18.12;87.20;99502.13;327502;30;1856;-72
2023/05/26 00:26:25;;;;;;;;;;;;;;;18.12;87.02;99497.69;327716;29;1575;-72
2023/05/26 00:26:36;;;;;;;;;;;;;;;18.12;87.21;99497.69;330810;29;893;-72
2023/05/26 00:26:46;;;;;;;;;;;;;;;18.12;86.97;99497.69;329403;29;2245;-73
2023/05/26 00:26:56;;;;;;;;;;;;;;;18.13;86.96;99490.56;328691;29;2622;-72
2023/05/26 00:27:06;;;;;;;;;;;;;;;18.13;87.02;99495.88;330354;29;1557;-72
2023/05/26 00:27:17;;;;;;;;;;;;;;;18.13;87.07;99491.44;327560;30;2680;-72
2023/05/26 00:27:27;;;;;;;;;;;;;;;18.13;87.08;99499.38;326862;30;3375;-72
2023/05/26 00:27:37;;;;;;;;;;;;;;;18.13;86.93;99499.38;328357;30;757;-72
2023/05/26 00:27:47;;;;;;;;;;;;;;;18.13;86.98;99496.72;327688;30;3341;-73
2023/05/26 00:27:57;;;;;;;;;;;;;;;18.14;86.94;99494.91;327032;30;3618;-72
2023/05/26 00:28:08;;;;;;;;;;;;;;;18.14;87.15;99502.88;325437;30;3308;-74
2023/05/26 00:28:18;;;;;;;;;;;;;;;18.13;86.99;99495.88;323428;30;943;-73
2023/05/26 00:28:28;;;;;;;;;;;;;;;18.13;87.19;99499.38;320826;30;2539;-73
2023/05/26 00:28:38;;;;;;;;;;;;;;;18.13;87.04;99493.22;321839;30;1992;-73
2023/05/26 00:28:49;;;;;;;;;;;;;;;18.13;87.15;99496.72;324622;30;1342;-73
2023/05/26 00:28:59;;;;;;;;;;;;;;;18.13;87.15;99498.53;320868;30;2927;-73
2023/05/26 00:29:09;;;;;;;;;;;;;;;18.12;87.03;99497.69;319084;30;3758;-72
2023/05/26 00:29:19;;;;;;;;;;;;;;;18.12;87.22;99499.47;317584;31;941;-72
2023/05/26 00:29:30;;;;;;;;;;;;;;;18.12;87.13;99502.97;313611;31;3982;-72
2023/05/26 00:29:41;;;;;;;;;;;;;;;18.10;86.98;99494.31;313846;31;4561;-72
2023/05/26 00:29:51;;;;;;;;;;;;;;;18.12;87.04;99494.19;316475;31;821;-72
2023/05/26 00:30:02;;;;;;;;;;;;;;;18.10;87.15;99499.59;314256;31;4353;-72
2023/05/26 00:30:12;;;;;;;;;;;;;;;18.12;87.03;99502.97;310846;31;4762;-73
2023/05/26 00:30:22;;;;;;;;;;;;;;;18.11;87.07;99505.75;308715;32;721;-73
2023/05/26 00:30:32;;;;;;;;;;;;;;;18.10;87.30;99496.94;307756;32;4582;-73
2023/05/26 00:30:43;;;;;;;;;;;;;;;18.12;87.17;99502.13;307430;32;3394;-73
2023/05/26 00:30:53;;;;;;;;;;;;;;;18.09;87.14;99505.84;305829;32;3128;-73
2023/05/26 00:31:03;;;;;;;;;;;;;;;18.09;87.32;99497.91;303641;32;3664;-73
2023/05/26 00:31:13;;;;;;;;;;;;;;;18.08;87.09;99501.50;301384;32;4694;-73
2023/05/26 00:31:24;;;;;;;;;;;;;;;18.08;87.32;99505.97;299383;32;6755;-73
2023/05/26 00:31:34;;;;;;;;;;;;;;;18.08;87.34;99500.66;300429;32;1578;-73
2023/05/26 00:31:44;;;;;;;;;;;;;;;18.07;87.26;99497.16;297153;32;5741;-73
2023/05/26 00:31:54;;;;;;;;;;;;;;;18.07;87.15;99497.16;294727;32;6628;-73
2023/05/26 00:32:05;;;;;;;;;;;;;;;18.07;87.37;99496.31;295971;33;1319;-73
2023/05/26 00:32:16;;;;;;;;;;;;;;;18.06;87.38;99503.44;296688;33;6489;-73
2023/05/26 00:32:26;;;;;;;;;;;;;;;18.06;87.29;99503.44;294079;33;6297;-73
2023/05/26 00:32:37;;;;;;;;;;;;;;;18.05;87.38;99501.72;292322;33;839;-74
2023/05/26 00:32:47;;;;;;;;;;;;;;;18.06;87.37;99502.59;293904;33;6543;-73
2023/05/26 00:32:57;;;;;;;;;;;;;;;18.06;87.52;99506.06;293231;33;4588;-72
2023/05/26 00:33:08;;;;;;;;;;;;;;;18.06;87.32;99497.28;292163;33;1344;-72
2023/05/26 00:33:18;;;;;;;;;;;;;;;18.04;87.44;99500.03;290362;34;1132;-72
2023/05/26 00:33:28;;;;;;;;;;;;;;;18.04;87.38;99499.19;288326;33;6535;-72
2023/05/26 00:33:39;;;;;;;;;;;;;;;18.04;87.45;99496.56;287467;33;8037;-72
2023/05/26 00:33:49;;;;;;;;;;;;;;;18.03;87.55;99493.06;288339;34;1220;-72
2023/05/26 00:33:59;;;;;;;;;;;;;;;18.03;87.59;99506.28;286520;34;8253;-72
2023/05/26 00:34:09;;;;;;;;;;;;;;;18.02;87.61;99507.25;285056;34;9880;-72
2023/05/26 00:34:20;;;;;;;;;;;;;;;18.03;87.60;99498.34;288502;34;753;-72
2023/05/26 00:34:30;;;;;;;;;;;;;;;18.03;87.61;99500.16;283905;34;9793;-72
2023/05/26 00:34:40;;;;;;;;;;;;;;;18.02;87.63;99496.66;281784;34;8957;-72
2023/05/26 00:34:51;;;;;;;;;;;;;;;18.03;87.60;99501.00;282828;35;853;-72
2023/05/26 00:35:01;;;;;;;;;;;;;;;18.03;87.44;99497.50;281468;34;9402;-72
2023/05/26 00:35:11;;;;;;;;;;;;;;;18.03;87.69;99498.34;280726;34;6490;-72
2023/05/26 00:35:22;;;;;;;;;;;;;;;18.03;87.63;99506.28;282926;35;750;-72
2023/05/26 00:37:31;;;;;;;;;;;;;;;18.02;87.85;99503.75;2504230;27;19937;-72
2023/05/26 00:37:41;;;;;;;;;;;;;;;18.02;87.73;99498.47;357721;27;1032;-72
2023/05/26 00:37:51;;;;;;;;;;;;;;;18.01;87.69;99500.25;356182;27;906;-72
2023/05/26 00:38:01;;;;;;;;;;;;;;;18.02;87.74;99501.13;352296;28;1392;-72
2023/05/26 00:38:11;;;;;;;;;;;;;;;18.01;87.83;99489.66;350480;28;1301;-72
2023/05/26 00:38:22;;;;;;;;;;;;;;;18.02;87.65;99496.66;350428;28;1254;-72
2023/05/26 00:38:32;;;;;;;;;;;;;;;18.03;87.73;99503.66;349162;28;950;-72
2023/05/26 00:38:42;;;;;;;;;;;;;;;18.02;87.71;99499.31;347859;28;895;-73
2023/05/26 00:38:52;;;;;;;;;;;;;;;18.03;87.90;99492.22;347564;28;1328;-73
2023/05/26 00:39:03;;;;;;;;;;;;;;;18.03;87.77;99498.34;348267;28;1547;-73
2023/05/26 00:39:13;;;;;;;;;;;;;;;18.03;87.64;99503.66;353196;28;1292;-73
2023/05/26 00:39:23;;;;;;;;;;;;;;;18.03;87.95;99498.34;353775;28;803;-72
2023/05/26 00:39:35;;;;;;;;;;;;;;;18.03;87.90;99501.00;351867;28;1195;-72
2023/05/26 00:39:45;;;;;;;;;;;;;;;18.03;87.69;99500.16;349398;28;1632;-72
2023/05/26 00:39:56;;;;;;;;;;;;;;;18.03;87.80;99500.16;349063;28;846;-72
2023/05/26 00:40:06;;;;;;;;;;;;;;;18.01;87.91;99500.25;349133;28;1367;-72
2023/05/26 00:40:17;;;;;;;;;;;;;;;17.99;88.01;99501.34;350372;28;3653;-72
2023/05/26 00:40:27;;;;;;;;;;;;;;;17.94;88.13;99499.88;347722;28;4296;-72
2023/05/26 00:40:37;;;;;;;;;;;;;;;17.91;88.39;99502.72;348753;28;5302;-72
2023/05/26 00:40:48;;;;;;;;;;;;;;;17.89;88.34;99495.84;349881;28;3421;-72
2023/05/26 00:40:58;;;;;;;;;;;;;;;17.88;88.53;99495.00;350535;28;4702;-72
2023/05/26 00:41:08;;;;;;;;;;;;;;;17.87;88.27;99498.63;350593;28;1398;-72
2023/05/26 00:41:19;;;;;;;;;;;;;;;17.88;88.46;99496.81;347561;28;1442;-72
2023/05/26 00:41:29;;;;;;;;;;;;;;;17.89;88.59;99495.84;348715;28;1514;-72
2023/05/26 00:41:39;;;;;;;;;;;;;;;17.89;88.44;99498.50;350297;28;1255;-72
2023/05/26 00:41:50;;;;;;;;;;;;;;;17.89;88.29;99495.84;349028;28;886;-72
2023/05/26 00:42:01;;;;;;;;;;;;;;;17.90;88.51;99497.56;346508;28;1328;-72
2023/05/26 00:42:11;;;;;;;;;;;;;;;17.90;88.58;99503.69;349613;28;1365;-72
2023/05/26 00:42:21;;;;;;;;;;;;;;;17.90;88.53;99497.56;346953;28;1219;-73
2023/05/26 00:42:32;;;;;;;;;;;;;;;17.91;88.65;99496.59;346774;28;1244;-72
2023/05/26 00:42:42;;;;;;;;;;;;;;;17.92;88.64;99496.47;347717;28;931;-72
2023/05/26 00:42:52;;;;;;;;;;;;;;;17.93;88.52;99497.31;347536;28;1236;-72
2023/05/26 00:43:02;;;;;;;;;;;;;;;17.95;88.60;99500.72;347718;28;1432;-72
2023/05/26 00:43:12;;;;;;;;;;;;;;;17.94;88.51;99505.16;349931;28;851;-72
2023/05/26 00:43:23;;;;;;;;;;;;;;;17.94;88.47;99502.50;350785;28;1409;-72
2023/05/26 00:43:33;;;;;;;;;;;;;;;17.95;88.70;99498.91;351928;28;912;-72
2023/05/26 00:43:43;;;;;;;;;;;;;;;17.97;88.75;99504.09;351746;28;1067;-72
2023/05/26 00:43:53;;;;;;;;;;;;;;;17.97;88.67;99497.94;351763;28;1033;-72
2023/05/26 00:44:04;;;;;;;;;;;;;;;17.98;88.76;99508.44;350536;28;1312;-72
2023/05/26 00:44:14;;;;;;;;;;;;;;;17.98;88.60;99497.84;350411;28;1227;-72
2023/05/26 00:44:25;;;;;;;;;;;;;;;17.98;88.46;99505.78;347577;28;936;-72
2023/05/26 00:44:35;;;;;;;;;;;;;;;17.98;88.60;99500.50;348175;28;950;-72
2023/05/26 00:44:45;;;;;;;;;;;;;;;17.98;88.69;99505.78;346506;28;1334;-72
2023/05/26 00:44:55;;;;;;;;;;;;;;;17.95;88.82;99500.72;344740;28;1302;-72
2023/05/26 00:45:06;;;;;;;;;;;;;;;17.95;88.76;99500.72;344552;28;1889;-72
2023/05/26 00:45:16;;;;;;;;;;;;;;;17.93;88.69;99498.19;345179;28;804;-72
2023/05/26 00:45:26;;;;;;;;;;;;;;;17.92;88.92;99496.47;345367;28;1308;-72
2023/05/26 00:45:36;;;;;;;;;;;;;;;17.91;89.02;99501.88;344586;28;1492;-72
2023/05/26 00:45:47;;;;;;;;;;;;;;;17.91;88.77;99500.09;342256;28;1006;-72
2023/05/26 00:45:57;;;;;;;;;;;;;;;17.92;88.72;99500.94;341492;28;1347;-72
2023/05/26 00:46:07;;;;;;;;;;;;;;;17.93;88.65;99502.63;342710;28;1720;-72
2023/05/26 00:46:17;;;;;;;;;;;;;;;17.92;88.81;99496.47;343722;28;808;-72
2023/05/26 00:46:29;;;;;;;;;;;;;;;17.91;88.91;99504.53;339837;28;1429;-72
2023/05/26 00:46:40;;;;;;;;;;;;;;;17.88;88.87;99499.47;340326;29;840;-72
2023/05/26 00:46:50;;;;;;;;;;;;;;;17.87;89.01;99503.06;340751;28;1764;-72
2023/05/26 00:47:00;;;;;;;;;;;;;;;17.86;89.15;99502.22;338146;29;1207;-72
2023/05/26 00:47:10;;;;;;;;;;;;;;;17.86;89.11;99499.56;338305;29;1032;-72
2023/05/26 00:47:21;;;;;;;;;;;;;;;17.85;89.25;99505.81;339850;28;1385;-72
2023/05/26 00:47:31;;;;;;;;;;;;;;;17.85;89.21;99499.69;344952;28;1566;-72
2023/05/26 00:47:41;;;;;;;;;;;;;;;17.85;89.24;99505.81;344177;28;1738;-72
2023/05/26 00:47:51;;;;;;;;;;;;;;;17.84;89.18;99505.94;342940;28;1762;-72
2023/05/26 00:48:02;;;;;;;;;;;;;;;17.85;89.25;99503.19;339671;29;1095;-72
2023/05/26 00:48:12;;;;;;;;;;;;;;;17.86;88.95;99502.22;340388;29;2103;-72
2023/05/26 00:48:23;;;;;;;;;;;;;;;17.84;89.35;99498.00;340186;28;2004;-72
2023/05/26 00:48:33;;;;;;;;;;;;;;;17.83;89.50;99504.25;342051;28;1583;-72
2023/05/26 00:48:43;;;;;;;;;;;;;;;17.83;89.45;99506.88;342051;28;1527;-72
2023/05/26 00:48:53;;;;;;;;;;;;;;;17.83;89.20;99501.59;341295;28;1449;-72
2023/05/26 00:49:04;;;;;;;;;;;;;;;17.83;89.22;99507.75;342365;28;883;-72
2023/05/26 00:49:15;;;;;;;;;;;;;;;17.83;88.99;99502.44;337581;29;1428;-72
2023/05/26 00:49:25;;;;;;;;;;;;;;;17.83;89.22;99497.16;336025;29;1843;-72
2023/05/26 00:49:35;;;;;;;;;;;;;;;17.83;89.26;99501.59;336393;29;3474;-72
2023/05/26 00:49:45;;;;;;;;;;;;;;;17.83;89.11;99506.88;334048;29;4823;-72
2023/05/26 00:49:56;;;;;;;;;;;;;;;17.82;89.40;99500.75;336150;29;3192;-72
2023/05/26 00:50:06;;;;;;;;;;;;;;;17.82;89.55;99503.41;335240;29;2400;-72
2023/05/26 00:50:17;;;;;;;;;;;;;;;17.82;89.68;99497.25;332420;29;3328;-72
2023/05/26 00:50:27;;;;;;;;;;;;;;;17.82;89.48;99507.84;331727;29;2802;-72
2023/05/26 00:50:38;;;;;;;;;;;;;;;17.81;89.65;99503.50;330256;29;2655;-73
2023/05/26 00:50:48;;;;;;;;;;;;;;;17.79;89.53;99498.31;333283;29;763;-72
2023/05/26 00:50:58;;;;;;;;;;;;;;;17.78;89.48;99504.56;333824;29;1950;-72
2023/05/26 00:51:08;;;;;;;;;;;;;;;17.80;89.42;99505.31;331686;29;1555;-72
2023/05/26 00:51:20;;;;;;;;;;;;;;;17.81;89.58;99508.81;328148;29;1363;-72
2023/05/26 00:51:31;;;;;;;;;;;;;;;17.82;89.44;99506.03;328046;30;1259;-72
2023/05/26 00:51:43;;;;;;;;;;;;;;;17.82;89.26;99505.19;330326;29;2597;-73
2023/05/26 00:51:53;;;;;;;;;;;;;;;17.82;89.17;99506.03;328267;29;2881;-72
2023/05/26 00:52:03;;;;;;;;;;;;;;;17.82;89.12;99500.75;328477;30;1662;-72
2023/05/26 00:52:14;;;;;;;;;;;;;;;17.83;89.05;99506.88;324082;30;3280;-72
2023/05/26 00:52:24;;;;;;;;;;;;;;;17.83;88.88;99501.59;324876;30;3411;-72
2023/05/26 00:52:34;;;;;;;;;;;;;;;17.82;88.66;99505.19;326067;30;923;-72
2023/05/26 00:52:44;;;;;;;;;;;;;;;17.82;88.67;99506.03;322968;30;3488;-72
2023/05/26 00:52:55;;;;;;;;;;;;;;;17.83;88.95;99506.88;324321;30;3340;-73
2023/05/26 00:53:05;;;;;;;;;;;;;;;17.83;88.76;99507.75;324068;30;3311;-73
2023/05/26 00:53:16;;;;;;;;;;;;;;;17.83;88.54;99506.88;323496;30;788;-73
2023/05/26 00:53:26;;;;;;;;;;;;;;;17.83;88.58;99501.59;323636;30;2161;-73
2023/05/26 00:53:36;;;;;;;;;;;;;;;17.83;88.67;99507.75;323498;30;2971;-73
2023/05/26 00:53:47;;;;;;;;;;;;;;;17.85;88.63;99507.63;324600;30;796;-73
2023/05/26 00:53:57;;;;;;;;;;;;;;;17.83;88.73;99501.59;322784;30;3638;-73
2023/05/26 00:54:09;;;;;;;;;;;;;;;17.84;88.59;99498.84;323051;30;3851;-72
2023/05/26 00:54:22;;;;;;;;;;;;;;;17.84;88.55;99504.13;323424;30;1267;-72
2023/05/26 00:54:32;;;;;;;;;;;;;;;17.84;88.47;99500.63;316502;31;1262;-72
2023/05/26 00:54:43;;;;;;;;;;;;;;;17.84;88.54;99504.13;318622;30;4420;-72
2023/05/26 00:54:53;;;;;;;;;;;;;;;17.83;88.47;99501.59;318703;30;4984;-72
2023/05/26 00:55:03;;;;;;;;;;;;;;;17.84;88.46;99503.28;319425;30;1621;-72
2023/05/26 00:55:14;;;;;;;;;;;;;;;17.83;88.39;99496.31;320830;30;4393;-72
2023/05/26 00:55:24;;;;;;;;;;;;;;;17.84;88.24;99503.28;319196;30;3454;-72
2023/05/26 00:55:34;;;;;;;;;;;;;;;17.83;88.28;99502.44;317349;31;1270;-72
2023/05/26 00:55:46;;;;;;;;;;;;;;;17.83;88.22;99496.31;315949;31;3188;-72
2023/05/26 00:55:56;;;;;;;;;;;;;;;17.84;88.04;99500.63;314541;31;4032;-72
2023/05/26 00:56:06;;;;;;;;;;;;;;;17.84;88.01;99500.63;311439;31;5011;-72
2023/05/26 00:56:17;;;;;;;;;;;;;;;17.83;87.96;99497.16;314187;31;984;-72
2023/05/26 00:56:27;;;;;;;;;;;;;;;17.83;87.96;99496.31;315140;31;5173;-72
2023/05/26 00:56:37;;;;;;;;;;;;;;;17.83;87.89;99501.59;315430;31;5583;-72
2023/05/26 00:56:48;;;;;;;;;;;;;;;17.81;87.89;99498.22;313519;31;1408;-72
2023/05/26 00:56:58;;;;;;;;;;;;;;;17.81;87.88;99498.22;309978;31;6009;-72
2023/05/26 00:57:08;;;;;;;;;;;;;;;17.79;87.83;99495.69;308118;31;6310;-72
2023/05/26 00:57:19;;;;;;;;;;;;;;;17.78;87.88;99498.44;310954;31;819;-72
2023/05/26 00:57:29;;;;;;;;;;;;;;;17.77;88.06;99499.38;308959;31;6258;-72
2023/05/26 00:57:40;;;;;;;;;;;;;;;17.76;88.05;99501.19;308047;31;4628;-72
2023/05/26 00:57:50;;;;;;;;;;;;;;;17.76;88.04;99495.09;308169;31;4908;-72
2023/05/26 00:58:00;;;;;;;;;;;;;;;17.75;87.94;99493.41;310873;31;794;-72
2023/05/26 00:58:11;;;;;;;;;;;;;;;17.73;87.98;99500.59;307911;31;5969;-72
2023/05/26 00:58:21;;;;;;;;;;;;;;;17.73;88.20;99500.59;305090;32;7395;-72
2023/05/26 00:58:31;;;;;;;;;;;;;;;17.73;88.22;99495.31;302643;32;1358;-72
2023/05/26 00:58:42;;;;;;;;;;;;;;;17.74;88.22;99497.00;299359;32;8121;-72
2023/05/26 00:58:52;;;;;;;;;;;;;;;17.74;88.06;99497.00;296492;32;7613;-72
2023/05/26 00:59:05;;;;;;;;;;;;;;;17.74;87.98;99497.00;297538;33;4214;-72
2023/05/26 00:59:15;;;;;;;;;;;;;;;17.74;88.08;99497.00;296702;33;3274;-72
2023/05/26 00:59:26;;;;;;;;;;;;;;;17.74;88.27;99497.00;293471;33;8467;-72
2023/05/26 00:59:36;;;;;;;;;;;;;;;17.74;88.27;99499.63;291800;33;8841;-72
2023/05/26 00:59:46;;;;;;;;;;;;;;;17.75;88.07;99494.25;294510;33;2178;-72
2023/05/26 00:59:56;;;;;;;;;;;;;;;17.75;88.01;99498.69;289313;33;6635;-72
2023/05/26 01:00:10;;;;;;;;;;;;;;;17.75;88.03;99493.41;288924;33;6738;-72